Terminal Aerodrome Forecast
Issued by NWS Newport/Morehead City, NC

Home | Current Version | Previous Version | Text Only | Print | Product List | Glossary Off
Versions: 1 2 3 4 5 6 7 8 9 10 11 12 13 14 15 16 17 18 19 20 21 22 23 24

000
FTUS42 KMHX 311321 AAA
TAFEWN
TAF AMD
KEWN 311321Z 3113/0112 36006KT P6SM BKN015
     FM311430 35004KT P6SM SCT030
     FM311900 04005KT P6SM VCTS BKN050CB
     FM010200 16003KT P6SM VCSH SCT040 BKN250
     FM010800 19001KT 6SM BR VCSH BKN040=

USA.gov is the U.S. government's official web portal to all federal, state and local government web resources and services.